Marshalltown, IA

10:27 PM CDT on September 01, 2014 (GMT -0500)
Marshalltown Municipal | Change Station
CLOSE
Current Station
Airport
Location: Marshalltown,
Elevation: 971 ft
Nearby Weather Stations

Elev 971 ft 42.11 °N, 92.92 °W | Updated 34 minutes ago

Clear
Clear
68 °F
Feels Like 68 °F
N
0
Wind Variable Wind from North

Today
High -- | Low -- °F
--% Chance of Precip.
Yesterday
High -- | Low -- °F
Precip. -- in
6:37 AM 7:45 PM
Waxing Crescent, 47% visible
Pressure 29.83 in
Visibility 10.0 miles
Clouds Clear
Dew Point 63 °F
Humidity 84%
Rainfall 0.09 in
Snow Depth Not available.
UV 0 out of 12
Pollen 2.80 out of 12
Air Quality Not available.
Flu Activity Not available.
METAR KMIW 020253Z AUTO 00000KT 10SM CLR 20/17 A2984 RMK AO2 SLP101 T02000172 50000

More Conditions Fewer Conditions

Pressure 29.83 in
Visibility 10.0 miles
Clouds Clear
Dew Point 63 °F
Humidity 84%
Rainfall 0.09 in
Snow Depth Not available.
UV 0 out of 12
Pollen 2.80 out of 12
Air Quality Not available.
Flu Activity Not available.
METAR KMIW 020253Z AUTO 00000KT 10SM CLR 20/17 A2984 RMK AO2 SLP101 T02000172 50000

More Conditions Fewer Conditions

10-Day Weather Forecast

Almanac

Astronomy

Sep. 01, 2014 Rise Set
Actual Time 6:37 AM CDT 7:45 PM CDT
Civil Twilight 6:08 AM CDT 8:14 PM CDT
Nautical Twilight 5:34 AM CDT 8:48 PM CDT
Astronomical Twilight 4:58 AM CDT 9:24 PM CDT
Moon 1:30 PM CDT (9/1) 11:40 PM CDT (9/1)
Length of Visible Light 14h 05m
Length of Day
13h 08m
Tomorrow will be 2m 44s shorter.
Waxing Crescent, 47% of the Moon is Illuminated
Today
Waxing Crescent
Sep 2
First Quarter
Sep 8
Full
Sep 15
Last Quarter
Sep 24
New

Today's Extremes

State Highs State Lows

Community

WunderPhotos

Upload Photos

1,749,546 photos uploaded!

WunderBlogs® & News

Nearby

Snow Depth

Station Depth Elevation
No new snow has been reported.

Earthquake Activity

City Distance Mag. Time & Date
No recent earthquake activity has been reported nearby.
Minimum magnitude displayed is 2.5.

Coastal Water Temperatures

Place Temperature
No Stations Reporting

Nearby Weather Stations